Time;durP1;ratioP1;P1;durP2;ratioP2;P2;SDS_P1;SDS_P2;PMS_P1;PMS_P2;Temp;Humidity;BMP_temperature;BMP_pressure;BME280_temperature;BME280_humidity;BME280_pressure;Samples;Min_cycle;Max_cycle;Signal;HPM_P1;HPM_P2
2022/09/12 00:02:01;;;;;;;13.27;11.87;;;;;;;14.06;88.06;101538.75;5261153;28;20492;-69
2022/09/12 00:04:32;;;;;;;13.50;11.97;;;;;;;14.00;87.71;101537.94;5262084;28;20036;-68
2022/09/12 00:07:03;;;;;;;13.67;12.37;;;;;;;14.03;87.56;101535.25;5261180;28;20045;-68
2022/09/12 00:09:35;;;;;;;13.53;11.00;;;;;;;14.09;87.83;101523.84;5261473;28;20029;-69
2022/09/12 00:12:06;;;;;;;17.13;11.83;;;;;;;14.03;87.88;101522.16;5261248;28;20492;-68
2022/09/12 00:14:37;;;;;;;12.83;11.53;;;;;;;14.07;87.89;101522.09;5261779;28;20123;-68
2022/09/12 00:17:09;;;;;;;17.07;12.70;;;;;;;13.88;88.31;101524.13;5260115;28;20119;-68
2022/09/12 00:19:40;;;;;;;14.40;12.27;;;;;;;13.96;87.97;101515.28;5261641;28;20021;-68
2022/09/12 00:22:12;;;;;;;16.50;12.47;;;;;;;13.95;87.83;101515.31;5261162;28;20032;-67
2022/09/12 00:24:43;;;;;;;14.87;12.03;;;;;;;13.83;88.16;101516.38;5261510;28;20476;-69
2022/09/12 00:27:14;;;;;;;17.27;13.20;;;;;;;13.75;88.51;101513.84;5261235;28;20479;-67
2022/09/12 00:29:46;;;;;;;16.17;13.33;;;;;;;13.74;88.55;101514.72;5261351;28;20051;-68
2022/09/12 00:32:17;;;;;;;14.57;13.13;;;;;;;13.75;88.74;101513.84;5262284;28;20037;-68
2022/09/12 00:34:48;;;;;;;15.97;13.27;;;;;;;13.63;89.06;101512.25;5262582;28;20039;-69
2022/09/12 00:37:20;;;;;;;17.67;12.67;;;;;;;13.64;89.19;101503.53;5276984;28;20037;-69
2022/09/12 00:39:51;;;;;;;17.20;13.83;;;;;;;13.68;89.12;101513.09;5260073;28;20388;-69
2022/09/12 00:42:23;;;;;;;14.83;13.17;;;;;;;13.67;88.99;101502.63;5261139;28;20460;-69
2022/09/12 00:44:54;;;;;;;14.67;13.17;;;;;;;13.61;89.25;101494.84;5260384;28;20048;-68
2022/09/12 00:47:28;;;;;;;22.37;14.13;;;;;;;13.60;89.38;101503.56;5259754;28;20029;-69
2022/09/12 00:50:09;;;;;;;16.48;14.77;;;;;;;13.58;89.69;101498.34;5260678;28;20387;-69
2022/09/12 00:52:48;;;;;;;20.80;14.55;;;;;;;13.29;90.14;101502.19;5259487;28;20040;-68
2022/09/12 00:55:33;;;;;;;16.15;14.48;;;;;;;13.38;90.09;101500.38;5259975;28;20074;-69
2022/09/12 00:58:13;;;;;;;15.73;14.15;;;;;;;13.29;90.23;101496.97;5261301;28;20029;-69
2022/09/12 01:00:46;;;;;;;18.80;15.30;;;;;;;13.31;90.71;101494.31;5260696;28;20025;-69
2022/09/12 01:03:19;;;;;;;;;;;;;;;13.41;88.87;101490.75;5262975;28;20123;-69
2022/09/12 01:05:59;;;;;;;18.40;15.75;;;;;;;13.20;90.18;101491.84;5264074;28;20347;-69
2022/09/12 01:08:33;;;;;;;20.00;16.17;;;;;;;13.24;90.75;101487.44;5264953;28;20068;-69
2022/09/12 01:11:05;;;;;;;17.40;15.68;;;;;;;13.29;90.56;101485.63;5264314;28;20082;-69
2022/09/12 01:13:36;;;;;;;15.82;13.98;;;;;;;13.21;90.61;101482.25;5265238;28;20047;-69
2022/09/12 01:16:08;;;;;;;17.03;15.27;;;;;;;13.07;90.77;101480.66;5263697;28;20414;-69
2022/09/12 01:19:04;;;;;;;19.57;17.40;;;;;;;12.97;91.05;101484.25;5264812;28;20029;-69
2022/09/12 01:22:05;;;;;;;17.30;15.10;;;;;;;13.08;91.38;101477.16;5264175;28;20028;-68
2022/09/12 01:24:51;;;;;;;18.50;15.50;;;;;;;13.00;91.67;101479.00;5264500;28;20151;-69
2022/09/12 01:27:41;;;;;;;19.30;17.33;;;;;;;12.81;91.92;101478.34;5263838;28;20032;-70
2022/09/12 01:30:15;;;;;;;18.90;16.88;;;;;;;12.83;92.04;101470.47;5264109;28;20040;-70
2022/09/12 01:32:54;;;;;;;18.45;16.63;;;;;;;12.82;92.52;101458.28;5264822;28;20406;-69
2022/09/12 01:35:28;;;;;;;18.75;15.52;;;;;;;12.74;92.41;101460.97;5264129;28;20029;-69
2022/09/12 01:38:24;;;;;;;21.88;18.20;;;;;;;12.66;93.62;101461.06;5264129;28;20467;-69
2022/09/12 01:41:15;;;;;;;19.55;17.52;;;;;;;12.86;93.82;101470.44;5262858;28;20215;-69
2022/09/12 01:44:00;;;;;;;20.10;18.00;;;;;;;12.74;93.92;101461.84;5264333;28;20025;-69
2022/09/12 01:47:01;;;;;;;19.55;17.55;;;;;;;12.64;94.07;101459.31;5264045;28;20033;-69
2022/09/12 01:49:56;;;;;;;26.05;18.88;;;;;;;12.82;94.11;101468.75;5264603;28;20120;-68
2022/09/12 01:52:45;;;;;;;22.13;18.05;;;;;;;12.74;94.15;101472.31;5264274;28;20033;-68
2022/09/12 01:55:22;;;;;;;19.55;17.50;;;;;;;12.75;93.64;101453.13;5263597;28;20467;-68
2022/09/12 01:57:58;;;;;;;19.13;17.17;;;;;;;12.87;93.62;101456.47;5264540;28;20025;-69
2022/09/12 02:00:34;;;;;;;19.77;17.67;;;;;;;12.90;93.09;101456.44;5263397;28;20029;-69
2022/09/12 02:03:16;;;;;;;20.00;18.10;;;;;;;12.98;93.46;101448.50;5262449;28;20476;-68
2022/09/12 02:05:59;;;;;;;20.38;18.33;;;;;;;12.90;93.63;101440.75;5263508;28;20123;-68
2022/09/12 02:08:37;;;;;;;20.50;18.60;;;;;;;12.83;93.83;101439.06;5264131;28;20041;-69
2022/09/12 02:11:10;;;;;;;19.55;17.50;;;;;;;12.92;93.69;101433.75;5263630;28;20073;-68
2022/09/12 02:13:48;;;;;;;23.35;18.58;;;;;;;12.80;94.01;101429.53;5263724;28;20047;-69
2022/09/12 02:16:28;;;;;;;20.10;17.92;;;;;;;12.71;94.11;101432.25;5263610;28;20033;-68
2022/09/12 02:19:07;;;;;;;20.20;18.25;;;;;;;12.71;94.30;101430.47;5263967;28;20435;-70
2022/09/12 02:21:44;;;;;;;20.80;18.70;;;;;;;12.77;94.17;101427.78;5262871;28;20356;-69
2022/09/12 02:24:16;;;;;;;22.30;19.27;;;;;;;12.76;94.40;101433.91;5263782;28;20021;-68
2022/09/12 02:26:53;;;;;;;23.63;19.25;;;;;;;12.65;94.69;101433.16;5263327;28;20060;-67
2022/09/12 02:29:25;;;;;;;22.60;20.48;;;;;;;12.53;94.85;101441.16;5263910;28;20137;-68
2022/09/12 02:32:05;;;;;;;21.10;19.00;;;;;;;12.54;95.57;101435.91;5262640;28;20167;-68
2022/09/12 02:34:54;;;;;;;20.77;18.63;;;;;;;12.52;95.48;101439.41;5263550;28;20021;-68
2022/09/12 02:37:31;;;;;;;22.05;18.90;;;;;;;12.50;95.71;101444.66;5263301;28;20035;-68
2022/09/12 02:40:03;;;;;;;20.75;18.67;;;;;;;12.48;95.91;101441.19;5262670;28;20120;-69
2022/09/12 02:42:35;;;;;;;22.30;19.95;;;;;;;12.43;95.78;101434.28;5263050;28;20115;-68
2022/09/12 02:45:08;;;;;;;21.45;19.00;;;;;;;12.51;95.97;101435.06;5262744;28;20037;-68
2022/09/12 02:47:45;;;;;;;;;;;;;;;12.54;94.68;101422.84;5263844;28;20029;-68
2022/09/12 02:50:17;;;;;;;21.38;19.23;;;;;;;12.54;95.47;101421.94;5261540;28;20495;-68
2022/09/12 02:52:49;;;;;;;26.23;21.17;;;;;;;12.47;96.13;101429.00;5261170;28;20037;-68
2022/09/12 02:55:23;;;;;;;22.58;18.33;;;;;;;12.42;96.17;101424.72;5262811;28;20515;-69
2022/09/12 02:57:54;;;;;;;20.73;18.08;;;;;;;12.41;96.24;101426.44;5263230;28;20074;-68
2022/09/12 03:00:29;;;;;;;20.87;18.73;;;;;;;12.36;96.70;101412.56;5261204;28;20398;-69
2022/09/12 03:03:37;;;;;;;22.42;19.55;;;;;;;12.33;96.99;101413.47;5278401;28;20136;-69
2022/09/12 03:06:36;;;;;;;21.88;19.52;;;;;;;12.29;97.50;101411.75;5261944;28;20088;-69
2022/09/12 03:09:23;;;;;;;22.35;19.95;;;;;;;12.32;97.53;101410.88;5262984;28;20052;-68
2022/09/12 03:12:10;;;;;;;22.35;18.88;;;;;;;12.19;98.28;101410.97;5262278;28;20411;-69
2022/09/12 03:14:48;;;;;;;20.55;18.38;;;;;;;12.32;97.87;101408.25;5261724;28;20159;-69
2022/09/12 03:17:50;;;;;;;22.60;20.27;;;;;;;12.22;98.40;101407.47;5261824;28;20025;-68
2022/09/12 03:20:47;;;;;;;21.83;19.27;;;;;;;12.29;97.86;101403.91;5261944;28;20471;-68
2022/09/12 03:23:37;;;;;;;19.95;18.05;;;;;;;12.30;97.48;101403.03;5262342;28;20029;-69
2022/09/12 03:26:14;;;;;;;19.88;17.52;;;;;;;12.30;97.71;101399.53;5261199;28;20047;-69
2022/09/12 03:28:48;;;;;;;22.85;18.30;;;;;;;12.31;97.68;101398.66;5262671;28;20048;-68
2022/09/12 03:31:19;;;;;;;21.67;19.48;;;;;;;12.20;97.79;101394.44;5261930;28;20028;-68
2022/09/12 03:33:50;;;;;;;22.03;19.73;;;;;;;12.35;98.13;101393.41;5262498;28;20091;-68
2022/09/12 03:36:25;;;;;;;22.43;19.90;;;;;;;12.36;98.21;101397.75;5261499;28;20116;-68
2022/09/12 03:38:56;;;;;;;22.48;18.30;;;;;;;12.30;98.21;101392.59;5262384;28;20499;-67
2022/09/12 03:41:28;;;;;;;22.80;20.33;;;;;;;12.31;98.03;101393.44;5261493;28;20025;-68
2022/09/12 03:43:59;;;;;;;21.77;19.50;;;;;;;12.28;97.94;101394.31;5262371;28;20066;-70
2022/09/12 03:46:31;;;;;;;22.33;20.00;;;;;;;12.31;98.00;101399.53;5261873;28;20028;-69
2022/09/12 03:49:02;;;;;;;21.00;19.00;;;;;;;12.36;98.31;101396.88;5262492;28;20033;-68
2022/09/12 03:51:34;;;;;;;22.87;19.80;;;;;;;12.37;98.33;101401.22;5261430;28;20123;-68
2022/09/12 03:54:06;;;;;;;20.03;18.07;;;;;;;12.34;98.30;101391.66;5261505;28;20033;-69
2022/09/12 03:56:39;;;;;;;22.80;20.48;;;;;;;12.37;98.66;101398.59;5261984;28;20032;-69
2022/09/12 03:59:10;;;;;;;23.17;20.70;;;;;;;12.31;98.98;101391.69;5261992;28;20037;-69
2022/09/12 04:01:41;;;;;;;23.70;21.27;;;;;;;12.21;99.16;101392.66;5261322;28;20119;-68
2022/09/12 04:04:13;;;;;;;23.97;20.83;;;;;;;12.24;99.62;101384.78;5262001;28;20036;-68
2022/09/12 04:06:44;;;;;;;25.07;22.37;;;;;;;12.19;99.91;101379.63;5261493;28;20407;-68
2022/09/12 04:09:15;;;;;;;25.20;22.20;;;;;;;12.22;100.00;101378.72;5262270;28;20056;-68
2022/09/12 04:11:47;;;;;;;23.90;21.40;;;;;;;12.24;100.00;101381.31;5261585;28;20040;-68
2022/09/12 04:14:18;;;;;;;22.57;20.13;;;;;;;12.24;100.00;101376.97;5261726;28;20514;-68
2022/09/12 04:16:50;;;;;;;25.23;22.37;;;;;;;12.31;100.00;101377.75;5261165;28;20028;-69
2022/09/12 04:19:22;;;;;;;24.40;21.90;;;;;;;12.32;100.00;101367.28;5261892;28;20526;-68
2022/09/12 04:21:53;;;;;;;22.75;20.35;;;;;;;12.34;100.00;101372.50;5261280;28;20033;-69
2022/09/12 04:24:25;;;;;;;23.87;21.37;;;;;;;12.27;100.00;101370.81;5259996;28;20033;-70
2022/09/12 04:26:56;;;;;;;26.03;22.27;;;;;;;12.26;100.00;101375.19;5260912;28;20082;-69
2022/09/12 04:29:28;;;;;;;25.87;22.97;;;;;;;12.28;100.00;101365.56;5261878;28;20041;-69
2022/09/12 04:32:00;;;;;;;26.52;23.25;;;;;;;12.28;100.00;101367.31;5261262;28;20033;-69
2022/09/12 04:34:32;;;;;;;24.15;21.67;;;;;;;12.32;100.00;101367.28;5261595;28;20033;-69
2022/09/12 04:37:03;;;;;;;26.07;23.43;;;;;;;12.33;100.00;101360.28;5262269;28;20037;-69
2022/09/12 04:39:34;;;;;;;26.47;23.83;;;;;;;12.34;100.00;101360.28;5265959;28;20040;-69
2022/09/12 04:42:06;;;;;;;29.93;23.57;;;;;;;12.31;100.00;101362.91;5265158;28;20032;-69
2022/09/12 04:44:37;;;;;;;26.63;23.73;;;;;;;12.31;100.00;101356.84;5266133;28;20048;-69
2022/09/12 04:47:09;;;;;;;26.63;23.57;;;;;;;12.33;100.00;101355.97;5264947;28;20032;-69
2022/09/12 04:49:40;;;;;;;26.23;23.03;;;;;;;12.37;100.00;101357.63;5265643;28;20071;-69
2022/09/12 04:52:11;;;;;;;29.00;24.13;;;;;;;12.35;100.00;101359.41;5265837;28;20036;-69
2022/09/12 04:54:43;;;;;;;27.83;23.33;;;;;;;12.22;100.00;101357.81;5265516;28;20106;-69
2022/09/12 04:57:14;;;;;;;28.93;23.57;;;;;;;12.30;100.00;101360.31;5265668;28;20387;-69
2022/09/12 04:59:45;;;;;;;27.30;23.83;;;;;;;12.33;100.00;101357.69;5265544;28;20036;-69
2022/09/12 05:02:17;;;;;;;26.30;23.60;;;;;;;12.32;100.00;101364.66;5263999;28;20048;-69
2022/09/12 05:04:48;;;;;;;26.83;23.77;;;;;;;12.29;100.00;101364.69;5265408;28;20040;-68
2022/09/12 05:07:20;;;;;;;29.77;26.07;;;;;;;12.32;100.00;101362.06;5265366;28;20404;-69
2022/09/12 05:09:51;;;;;;;31.47;25.17;;;;;;;12.28;100.00;101359.47;5265618;28;20029;-69
2022/09/12 05:12:23;;;;;;;28.40;24.10;;;;;;;12.24;100.00;101363.88;5265242;28;20170;-69
2022/09/12 05:14:54;;;;;;;26.92;22.92;;;;;;;12.28;100.00;101365.56;5263689;28;20118;-69
2022/09/12 05:17:28;;;;;;;27.07;24.27;;;;;;;12.31;100.00;101370.78;5265151;28;20044;-69
2022/09/12 05:19:59;;;;;;;27.92;24.88;;;;;;;12.35;100.00;101369.88;5264720;28;20094;-69
2022/09/12 05:22:30;;;;;;;29.03;26.03;;;;;;;12.34;100.00;101364.66;5264789;28;20075;-69
2022/09/12 05:25:04;;;;;;;26.80;23.67;;;;;;;12.37;100.00;101362.00;5264390;28;20484;-69
2022/09/12 05:27:35;;;;;;;25.27;22.50;;;;;;;12.45;100.00;101364.53;5263420;28;20424;-70
2022/09/12 05:30:08;;;;;;;27.60;24.83;;;;;;;12.37;100.00;101367.25;5264874;28;20087;-69
2022/09/12 05:32:39;;;;;;;29.20;24.05;;;;;;;12.45;100.00;101364.53;5264668;28;20040;-69
2022/09/12 05:35:11;;;;;;;29.53;25.50;;;;;;;12.46;100.00;101366.25;5264812;28;20025;-69
2022/09/12 05:37:42;;;;;;;32.37;26.10;;;;;;;12.48;100.00;101365.38;5264512;28;20064;-68
2022/09/12 05:40:16;;;;;;;30.20;24.63;;;;;;;12.52;100.00;101366.19;5263413;28;20119;-69
2022/09/12 05:42:47;;;;;;;30.67;25.52;;;;;;;12.55;100.00;101360.94;5264507;28;20033;-68
2022/09/12 05:45:20;;;;;;;28.73;25.47;;;;;;;12.58;100.00;101366.13;5263021;28;20048;-69
2022/09/12 05:47:53;;;;;;;27.77;24.75;;;;;;;12.66;100.00;101364.28;5264360;28;20095;-69
2022/09/12 05:50:24;;;;;;;28.23;24.42;;;;;;;12.71;100.00;101362.47;5263646;28;20052;-69
2022/09/12 05:52:56;;;;;;;30.87;26.63;;;;;;;12.72;100.00;101374.69;5264167;28;20028;-69
2022/09/12 05:55:28;;;;;;;29.10;26.00;;;;;;;12.82;100.00;101379.81;5263140;28;20033;-69
2022/09/12 05:57:59;;;;;;;30.63;25.57;;;;;;;12.78;100.00;101373.72;5264516;28;20031;-70
2022/09/12 06:00:31;;;;;;;27.07;24.17;;;;;;;12.85;100.00;101371.91;5263985;28;20025;-69
2022/09/12 06:03:02;;;;;;;29.33;26.20;;;;;;;12.87;100.00;101381.47;5264446;28;20025;-69
2022/09/12 06:05:33;;;;;;;30.03;25.77;;;;;;;12.84;100.00;101381.50;5263973;28;20104;-69
2022/09/12 06:08:05;;;;;;;31.20;26.10;;;;;;;12.94;100.00;101390.97;5264026;28;20091;-69
2022/09/12 06:10:37;;;;;;;29.17;25.13;;;;;;;12.96;100.00;101388.34;5264116;28;20427;-69
2022/09/12 06:13:08;;;;;;;29.93;25.13;;;;;;;12.96;100.00;101388.34;5263783;28;20033;-68
2022/09/12 06:15:40;;;;;;;30.43;26.43;;;;;;;13.00;100.00;101389.16;5264068;28;20037;-69
2022/09/12 06:18:11;;;;;;;34.17;26.60;;;;;;;12.99;100.00;101390.03;5263717;28;20114;-69
2022/09/12 06:20:43;;;;;;;31.08;26.48;;;;;;;13.00;100.00;101389.16;5262725;28;20061;-68
2022/09/12 06:23:15;;;;;;;30.87;26.40;;;;;;;12.97;100.00;101395.28;5264064;28;20044;-69
2022/09/12 06:25:48;;;;;;;28.87;24.77;;;;;;;12.98;100.00;101380.47;5263804;28;20035;-70
2022/09/12 06:28:20;;;;;;;29.75;25.10;;;;;;;12.98;100.00;101386.56;5264209;28;20063;-69
2022/09/12 06:30:51;;;;;;;27.80;25.00;;;;;;;12.97;100.00;101376.09;5262726;28;20036;-69
2022/09/12 06:33:22;;;;;;;28.07;25.07;;;;;;;13.00;100.00;101370.84;5264343;28;20033;-69
2022/09/12 06:35:54;;;;;;;27.80;24.80;;;;;;;13.04;100.00;101373.41;5263870;28;20048;-67
2022/09/12 06:38:25;;;;;;;27.07;24.30;;;;;;;13.11;100.00;101376.78;5263850;28;20052;-68
2022/09/12 06:40:57;;;;;;;30.87;26.00;;;;;;;13.18;100.00;101374.94;5265897;28;20079;-68
2022/09/12 06:43:28;;;;;;;28.90;25.20;;;;;;;13.24;100.00;101377.47;5270138;28;20537;-72
2022/09/12 06:46:01;;;;;;;29.90;24.13;;;;;;;13.30;100.00;101382.63;5269862;28;20032;-70
2022/09/12 06:48:32;;;;;;;29.75;25.02;;;;;;;13.35;100.00;101379.97;5267085;28;20055;-69
2022/09/12 06:51:07;;;;;;;27.67;24.30;;;;;;;13.48;100.00;101377.13;5263716;28;20431;-68
2022/09/12 06:53:39;;;;;;;29.40;23.70;;;;;;;13.47;100.00;101375.41;5263130;28;20025;-68
2022/09/12 06:56:12;;;;;;;25.88;23.27;;;;;;;13.55;100.00;101377.06;5263288;28;20421;-68
2022/09/12 06:58:45;;;;;;;25.73;23.13;;;;;;;13.59;100.00;101378.75;5263126;28;20399;-68
2022/09/12 07:01:19;;;;;;;25.75;23.05;;;;;;;13.57;100.00;101375.25;5261683;28;20028;-69
2022/09/12 07:03:53;;;;;;;26.83;23.45;;;;;;;13.66;100.00;101372.50;5262827;28;20029;-68
2022/09/12 07:06:30;;;;;;;27.15;23.67;;;;;;;13.67;100.00;101377.72;5261380;28;20049;-68
2022/09/12 07:09:04;;;;;;;25.13;22.67;;;;;;;13.70;100.00;101375.94;5262814;28;20520;-69
2022/09/12 07:11:37;;;;;;;26.00;22.92;;;;;;;13.72;100.00;101377.66;5262748;28;20548;-69
2022/09/12 07:14:12;;;;;;;26.42;22.60;;;;;;;13.78;100.00;101374.94;5262826;28;20371;-69
2022/09/12 07:16:44;;;;;;;26.42;22.67;;;;;;;13.82;100.00;101380.97;5262604;28;20024;-69
2022/09/12 07:19:15;;;;;;;30.27;24.37;;;;;;;13.94;100.00;101374.66;5262630;28;20369;-69
2022/09/12 07:21:46;;;;;;;27.37;24.53;;;;;;;13.96;100.00;101378.09;5262493;28;20079;-68
2022/09/12 07:24:18;;;;;;;28.37;23.37;;;;;;;13.99;100.00;101370.19;5260830;28;20033;-69
2022/09/12 07:26:49;;;;;;;27.83;23.00;;;;;;;14.09;100.00;101369.16;5262516;28;20065;-69
2022/09/12 07:29:20;;;;;;;34.30;23.93;;;;;;;14.23;100.00;101374.13;5262631;28;20033;-67
2022/09/12 07:31:52;;;;;;;25.17;22.63;;;;;;;14.33;100.00;101366.94;5262402;28;20037;-68
2022/09/12 07:34:24;;;;;;;25.60;23.00;;;;;;;14.46;100.00;101371.09;5262366;28;20396;-70
2022/09/12 07:36:55;;;;;;;25.13;22.43;;;;;;;14.58;100.00;101378.69;5262471;28;20033;-68
2022/09/12 07:39:26;;;;;;;25.47;22.97;;;;;;;14.75;100.00;101367.03;5262528;28;20036;-69
2022/09/12 07:41:59;;;;;;;24.37;21.73;;;;;;;14.87;100.00;101371.16;5262514;28;20029;-68
2022/09/12 07:44:30;;;;;;;23.88;20.88;;;;;;;14.98;100.00;101377.03;5263357;28;20033;-68
2022/09/12 07:47:02;;;;;;;22.50;20.20;;;;;;;15.12;100.00;101379.38;5262700;28;20029;-70
2022/09/12 07:49:34;;;;;;;22.87;20.57;;;;;;;15.23;99.39;101377.38;5261604;28;20425;-69
2022/09/12 07:52:05;;;;;;;24.25;21.25;;;;;;;15.29;98.91;101382.50;5261944;28;20036;-69
2022/09/12 07:54:36;;;;;;;25.53;21.17;;;;;;;15.44;99.22;101376.00;5261656;28;20051;-68
2022/09/12 07:57:08;;;;;;;20.30;18.43;;;;;;;15.59;99.10;101372.16;5261943;28;20033;-70
2022/09/12 07:59:41;;;;;;;25.03;19.53;;;;;;;15.75;98.50;101384.91;5261798;28;20372;-70
2022/09/12 08:02:15;;;;;;;22.70;18.75;;;;;;;15.92;96.52;101389.78;5261585;28;20029;-69
2022/09/12 08:04:48;;;;;;;23.05;19.58;;;;;;;15.96;97.11;101381.78;5260431;28;20399;-69
2022/09/12 08:07:19;;;;;;;19.70;17.80;;;;;;;16.07;94.25;101375.34;5261493;28;20053;-69
2022/09/12 08:09:52;;;;;;;21.57;19.43;;;;;;;16.18;95.89;101376.81;5261709;28;20171;-69
2022/09/12 08:12:23;;;;;;;20.73;18.58;;;;;;;16.34;94.94;101376.38;5261317;28;20043;-69
2022/09/12 08:14:55;;;;;;;19.80;16.50;;;;;;;16.58;93.14;101386.25;5261763;28;20029;-69
2022/09/12 08:17:26;;;;;;;20.10;18.10;;;;;;;16.59;92.88;101387.97;5261835;28;20086;-69
2022/09/12 08:19:57;;;;;;;19.10;17.10;;;;;;;16.65;90.87;101386.94;5261635;28;20037;-68
2022/09/12 08:22:30;;;;;;;;;;;;;;;16.78;91.65;101388.31;5261609;28;20049;-68
2022/09/12 08:25:02;;;;;;;17.30;15.70;;;;;;;16.78;90.56;101390.94;5261345;28;20365;-70
2022/09/12 08:27:33;;;;;;;18.70;16.67;;;;;;;16.85;91.47;101386.38;5261780;28;20025;-69
2022/09/12 08:30:05;;;;;;;19.37;16.93;;;;;;;17.04;90.05;101391.13;5261653;28;20267;-69
2022/09/12 08:32:36;;;;;;;18.87;17.07;;;;;;;17.11;91.23;101398.78;5261625;28;20048;-68
2022/09/12 08:35:08;;;;;;;19.40;17.33;;;;;;;17.19;87.95;101395.91;5261369;28;20063;-69
2022/09/12 08:37:39;;;;;;;19.27;17.27;;;;;;;17.34;88.36;101404.25;5261754;28;20025;-70
2022/09/12 08:40:16;;;;;;;19.93;16.47;;;;;;;17.36;88.77;101402.44;5261536;28;20065;-69
2022/09/12 08:43:09;;;;;;;18.35;16.50;;;;;;;17.43;86.30;101398.69;5261362;28;20025;-70
2022/09/12 08:45:47;;;;;;;;;;;;;;;17.60;87.37;101396.38;5261660;28;20108;-68
2022/09/12 08:48:18;;;;;;;18.15;16.35;;;;;;;17.60;85.86;101390.25;5261462;28;19913;-70
2022/09/12 08:50:50;;;;;;;19.37;14.87;;;;;;;17.80;86.76;101394.84;5260067;28;20051;-70
2022/09/12 08:53:26;;;;;;;17.33;14.20;;;;;;;18.02;85.62;101392.41;5260970;28;20041;-69
2022/09/12 08:55:59;;;;;;;16.33;14.63;;;;;;;18.17;84.76;101397.13;5261078;28;20095;-70
2022/09/12 08:58:35;;;;;;;;;;;;;;;18.52;84.14;101389.75;5261758;28;20029;-70
2022/09/12 09:01:11;;;;;;;19.08;13.95;;;;;;;18.84;83.69;101392.16;5261403;28;19920;-69
2022/09/12 09:03:54;;;;;;;13.98;12.55;;;;;;;19.52;79.98;101378.94;5261194;28;20037;-70
2022/09/12 09:07:07;;;;;;;14.98;12.95;;;;;;;19.88;76.19;101386.28;5260720;28;20412;-69
2022/09/12 09:10:13;;;;;;;12.20;11.10;;;;;;;20.97;74.40;101381.47;5227485;28;20137;-70
2022/09/12 09:13:01;;;;;;;14.48;11.45;;;;;;;21.42;71.12;101382.00;5261111;28;20582;-70
2022/09/12 09:15:48;;;;;;;11.32;10.25;;;;;;;22.16;69.58;101375.66;5261314;28;20032;-69
2022/09/12 09:18:23;;;;;;;10.02;8.90;;;;;;;22.87;68.14;101371.91;5261097;28;20106;-70
2022/09/12 09:20:59;;;;;;;9.98;8.40;;;;;;;23.16;61.64;101378.28;5260800;28;20079;-70
2022/09/12 09:23:36;;;;;;;10.93;8.93;;;;;;;23.32;60.52;101378.25;5261068;28;20033;-70
2022/09/12 09:26:25;;;;;;;9.20;8.30;;;;;;;23.70;59.59;101377.84;5265041;28;20064;-70
2022/09/12 09:29:05;;;;;;;10.73;8.48;;;;;;;23.24;58.96;101376.03;5263661;28;20024;-71
2022/09/12 09:31:38;;;;;;;9.88;8.52;;;;;;;23.59;58.55;101367.84;5264937;28;20025;-70
2022/09/12 09:34:17;;;;;;;8.73;7.75;;;;;;;24.17;57.45;101366.19;5264904;28;20021;-70
2022/09/12 09:36:50;;;;;;;7.95;7.15;;;;;;;23.88;55.99;101364.41;5264816;28;20029;-70
2022/09/12 09:39:45;;;;;;;8.82;7.93;;;;;;;23.85;56.85;101370.78;5264738;28;20098;-70
2022/09/12 09:42:26;;;;;;;9.10;7.88;;;;;;;24.02;55.94;101365.31;5264583;28;20029;-69
2022/09/12 09:45:01;;;;;;;7.88;6.88;;;;;;;24.88;58.06;101358.28;5264810;28;20033;-70
2022/09/12 09:47:33;;;;;;;8.68;7.38;;;;;;;25.15;53.78;101357.44;5264645;28;20029;-71
2022/09/12 09:50:05;;;;;;;10.00;9.00;;;;;;;25.09;51.19;101356.91;5264365;28;20530;-69
2022/09/12 09:52:37;;;;;;;;;;;;;;;26.23;52.13;101344.91;5265194;28;20044;-70
2022/09/12 09:55:17;;;;;;;;;;;;;;;26.73;51.46;101349.34;5264562;28;20278;-70
2022/09/12 09:57:48;;;;;;;7.78;6.43;;;;;;;25.99;49.10;101340.31;5263086;28;19921;-70
2022/09/12 10:00:26;;;;;;;;;;;;;;;27.40;52.39;101328.44;5264767;28;20037;-70
2022/09/12 10:03:20;;;;;;;8.60;6.13;;;;;;;27.08;51.58;101337.91;5264530;28;19935;-70
2022/09/12 10:05:58;;;;;;;8.23;5.57;;;;;;;27.34;47.20;101332.47;5264095;28;20047;-70
2022/09/12 10:08:34;;;;;;;6.60;4.70;;;;;;;27.50;45.60;101321.44;5264189;28;20108;-70
2022/09/12 10:11:11;;;;;;;9.15;5.93;;;;;;;27.61;44.18;101324.16;5262606;28;20033;-70
2022/09/12 10:13:53;;;;;;;7.65;5.68;;;;;;;27.62;46.90;101325.00;5264250;28;20499;-69
2022/09/12 10:16:27;;;;;;;7.55;5.30;;;;;;;28.18;42.01;101319.75;5264165;28;20029;-72
2022/09/12 10:19:01;;;;;;;7.72;5.63;;;;;;;28.28;41.99;101311.00;5263988;28;20163;-71
2022/09/12 10:21:47;;;;;;;10.43;4.97;;;;;;;28.12;41.44;101312.19;5262156;28;20025;-70
2022/09/12 10:24:29;;;;;;;8.23;6.13;;;;;;;27.90;44.10;101309.47;5262128;28;20033;-69
2022/09/12 10:27:22;;;;;;;6.53;5.40;;;;;;;28.13;43.77;101297.84;5262649;28;20025;-70
2022/09/12 10:29:55;;;;;;;7.25;6.10;;;;;;;27.82;41.44;101302.91;5263733;28;20024;-70
2022/09/12 10:32:28;;;;;;;8.23;5.60;;;;;;;27.61;42.77;101297.38;5264038;28;20444;-71
2022/09/12 10:35:03;;;;;;;7.78;4.85;;;;;;;28.40;44.88;101299.31;5263569;28;20483;-72
2022/09/12 10:37:38;;;;;;;6.85;6.15;;;;;;;28.35;42.17;101296.97;5263668;28;20043;-71
2022/09/12 10:40:23;;;;;;;7.57;4.50;;;;;;;29.54;42.55;101286.41;5263468;28;20057;-70
2022/09/12 10:42:59;;;;;;;8.35;4.72;;;;;;;30.00;39.18;101287.81;5263782;28;20025;-69
2022/09/12 10:45:36;;;;;;;6.55;4.43;;;;;;;30.41;38.44;101287.88;5263815;28;20036;-72
2022/09/12 10:48:29;;;;;;;6.35;4.10;;;;;;;31.46;40.53;101276.50;5262244;28;20029;-69
2022/09/12 10:51:00;;;;;;;5.85;3.60;;;;;;;31.54;37.63;101278.47;5262069;28;20527;-71
2022/09/12 10:53:40;;;;;;;5.18;3.75;;;;;;;32.28;38.45;101272.31;5261881;28;20057;-70
2022/09/12 10:56:15;;;;;;;6.82;4.22;;;;;;;31.96;35.61;101267.28;5263396;28;20143;-70
2022/09/12 10:59:07;;;;;;;5.20;4.03;;;;;;;32.79;38.02;101255.66;5263140;28;20369;-71
2022/09/12 11:01:39;;;;;;;;;;;;;;;34.36;34.38;101257.56;5263571;28;20036;-71
2022/09/12 11:04:13;;;;;;;;;;;;;;;34.17;31.62;101260.38;5263484;28;19912;-70
2022/09/12 11:07:07;;;;;;;5.32;3.83;;;;;;;32.34;33.14;101258.19;5262839;28;19960;-71
2022/09/12 11:09:53;;;;;;;8.98;3.72;;;;;;;32.68;36.01;101249.50;5262993;28;20033;-70
2022/09/12 11:12:46;;;;;;;6.78;3.70;;;;;;;32.47;37.36;101246.19;5262961;28;20068;-69
2022/09/12 11:15:41;;;;;;;5.05;3.92;;;;;;;33.72;34.04;101245.28;5263889;28;20513;-67
2022/09/12 11:19:02;;;;;;;5.15;4.18;;;;;;;34.23;34.28;101252.63;5262526;28;20039;-70
2022/09/12 11:22:16;;;;;;;7.30;3.28;;;;;;;34.90;33.01;101249.09;5250404;28;20067;-70
2022/09/12 11:25:09;;;;;;;6.45;4.88;;;;;;;34.78;32.65;101244.00;5262037;28;20040;-70
2022/09/12 11:27:51;;;;;;;6.35;2.78;;;;;;;34.63;31.30;101243.78;5262433;28;20050;-71
2022/09/12 11:30:23;;;;;;;6.00;3.17;;;;;;;34.12;30.31;101242.94;5262653;28;20433;-70
2022/09/12 11:33:10;;;;;;;5.93;2.70;;;;;;;34.54;29.28;101236.66;5262723;28;20072;-70
2022/09/12 11:35:51;;;;;;;3.08;2.40;;;;;;;34.49;29.58;101239.03;5262410;28;20107;-71
2022/09/12 11:38:30;;;;;;;3.58;2.55;;;;;;;35.15;28.24;101228.25;5262326;28;20032;-70
2022/09/12 11:41:07;;;;;;;7.03;3.72;;;;;;;33.75;28.27;101234.16;5262518;28;20029;-71
2022/09/12 11:43:56;;;;;;;8.05;2.70;;;;;;;35.17;29.61;101232.47;5262328;28;20036;-70
2022/09/12 11:46:28;;;;;;;3.13;2.53;;;;;;;35.08;27.53;101224.53;5261498;28;20036;-70
2022/09/12 11:49:18;;;;;;;5.40;2.57;;;;;;;35.10;28.19;101231.50;5262011;28;20029;-70
2022/09/12 11:52:06;;;;;;;5.10;2.60;;;;;;;34.65;25.84;101232.78;5262223;28;20271;-70
2022/09/12 11:54:59;;;;;;;3.60;2.90;;;;;;;33.41;27.02;101234.94;5261777;28;20040;-71